sensor_id;sensor_type;location;lat;lon;timestamp;pressure;altitude;pressure_sealevel;temperature;humidity
75086;BME280;63663;0.000;0.000;2022-09-19T19:02:34;101109.88;;;17.92;54.78
75086;BME280;63663;0.000;0.000;2022-09-19T19:04:59;101110.69;;;17.92;55.02
75086;BME280;63663;0.000;0.000;2022-09-19T19:07:24;101111.00;;;17.91;55.17
75086;BME280;63663;0.000;0.000;2022-09-19T19:09:49;101110.19;;;17.90;54.96
75086;BME280;63663;0.000;0.000;2022-09-19T19:12:14;101116.00;;;17.89;54.95
75086;BME280;63663;0.000;0.000;2022-09-19T19:14:40;101112.94;;;17.90;55.04
75086;BME280;63663;0.000;0.000;2022-09-19T19:17:05;101112.09;;;17.90;55.08
75086;BME280;63663;0.000;0.000;2022-09-19T19:19:30;101116.31;;;17.87;55.01
75086;BME280;63663;0.000;0.000;2022-09-19T19:21:55;101117.13;;;17.88;55.16
75086;BME280;63663;0.000;0.000;2022-09-19T19:24:20;101122.66;;;17.88;55.06
75086;BME280;63663;0.000;0.000;2022-09-19T19:26:45;101124.59;;;17.87;54.80
75086;BME280;63663;0.000;0.000;2022-09-19T19:29:10;101121.84;;;17.87;55.02
75086;BME280;63663;0.000;0.000;2022-09-19T19:31:37;101124.88;;;17.86;54.89
75086;BME280;63663;0.000;0.000;2022-09-19T19:34:02;101125.69;;;17.86;54.91
75086;BME280;63663;0.000;0.000;2022-09-19T19:36:28;101129.56;;;17.85;54.92
75086;BME280;63663;0.000;0.000;2022-09-19T19:38:53;101127.63;;;17.86;54.91
75086;BME280;63663;0.000;0.000;2022-09-19T19:41:19;101123.25;;;17.85;54.79
75086;BME280;63663;0.000;0.000;2022-09-19T19:43:44;101126.00;;;17.85;54.79
75086;BME280;63663;0.000;0.000;2022-09-19T19:46:10;101120.50;;;17.85;54.85
75086;BME280;63663;0.000;0.000;2022-09-19T19:48:36;101121.63;;;17.84;54.83
75086;BME280;63663;0.000;0.000;2022-09-19T19:51:04;101121.63;;;17.84;54.77
75086;BME280;63663;0.000;0.000;2022-09-19T19:53:30;101122.44;;;17.84;54.58
75086;BME280;63663;0.000;0.000;2022-09-19T19:55:56;101108.97;;;17.83;54.35
75086;BME280;63663;0.000;0.000;2022-09-19T19:58:21;101116.41;;;17.82;54.50
75086;BME280;63663;0.000;0.000;2022-09-19T20:00:46;101117.22;;;17.83;54.40
75086;BME280;63663;0.000;0.000;2022-09-19T20:03:11;101118.34;;;17.82;53.77
75086;BME280;63663;0.000;0.000;2022-09-19T20:05:36;101115.59;;;17.82;54.03
75086;BME280;63663;0.000;0.000;2022-09-19T20:08:01;101119.47;;;17.81;54.03
75086;BME280;63663;0.000;0.000;2022-09-19T20:10:26;101117.84;;;17.80;54.05
75086;BME280;63663;0.000;0.000;2022-09-19T20:12:52;101120.59;;;17.80;53.81
75086;BME280;63663;0.000;0.000;2022-09-19T20:15:17;101123.34;;;17.80;53.68
75086;BME280;63663;0.000;0.000;2022-09-19T20:17:42;101116.22;;;17.79;53.54
75086;BME280;63663;0.000;0.000;2022-09-19T20:20:07;101118.13;;;17.78;53.44
75086;BME280;63663;0.000;0.000;2022-09-19T20:22:32;101112.97;;;17.77;53.63
75086;BME280;63663;0.000;0.000;2022-09-19T20:24:58;101114.56;;;17.78;53.38
75086;BME280;63663;0.000;0.000;2022-09-19T20:27:23;101112.97;;;17.77;53.35
75086;BME280;63663;0.000;0.000;2022-09-19T20:29:48;101112.97;;;17.77;53.48
75086;BME280;63663;0.000;0.000;2022-09-19T20:32:13;101117.97;;;17.75;53.44
75086;BME280;63663;0.000;0.000;2022-09-19T20:34:38;101113.28;;;17.75;53.58
75086;BME280;63663;0.000;0.000;2022-09-19T20:37:04;101110.53;;;17.75;53.27
75086;BME280;63663;0.000;0.000;2022-09-19T20:39:29;101113.56;;;17.73;53.55
75086;BME280;63663;0.000;0.000;2022-09-19T20:41:54;101115.50;;;17.73;53.53
75086;BME280;63663;0.000;0.000;2022-09-19T20:44:19;101117.44;;;17.72;53.42
75086;BME280;63663;0.000;0.000;2022-09-19T20:46:45;101113.06;;;17.71;53.55
75086;BME280;63663;0.000;0.000;2022-09-19T20:49:10;101112.25;;;17.71;53.59
75086;BME280;63663;0.000;0.000;2022-09-19T20:51:36;101122.44;;;17.70;53.76
75086;BME280;63663;0.000;0.000;2022-09-19T20:54:03;101120.50;;;17.71;53.56
75086;BME280;63663;0.000;0.000;2022-09-19T20:56:28;101120.50;;;17.71;53.85
75086;BME280;63663;0.000;0.000;2022-09-19T20:58:54;101118.88;;;17.70;53.60
75086;BME280;63663;0.000;0.000;2022-09-19T21:01:20;101125.50;;;17.69;53.83
75086;BME280;63663;0.000;0.000;2022-09-19T21:03:46;101127.44;;;17.68;53.87
75086;BME280;63663;0.000;0.000;2022-09-19T21:06:11;101117.53;;;17.67;53.74
75086;BME280;63663;0.000;0.000;2022-09-19T21:08:37;101123.03;;;17.67;53.90
75086;BME280;63663;0.000;0.000;2022-09-19T21:11:03;101124.69;;;17.68;53.81
75086;BME280;63663;0.000;0.000;2022-09-19T21:13:30;101120.28;;;17.67;53.85
75086;BME280;63663;0.000;0.000;2022-09-19T21:15:55;101126.91;;;17.66;53.62
75086;BME280;63663;0.000;0.000;2022-09-19T21:18:21;101130.00;;;17.65;53.59
75086;BME280;63663;0.000;0.000;2022-09-19T21:20:46;101127.25;;;17.65;53.48
75086;BME280;63663;0.000;0.000;2022-09-19T21:23:11;101127.25;;;17.65;53.59
75086;BME280;63663;0.000;0.000;2022-09-19T21:25:37;101130.00;;;17.65;53.52
75086;BME280;63663;0.000;0.000;2022-09-19T21:28:02;101127.25;;;17.65;53.46
75086;BME280;63663;0.000;0.000;2022-09-19T21:30:27;101127.56;;;17.63;53.37
75086;BME280;63663;0.000;0.000;2022-09-19T21:32:52;101122.03;;;17.63;53.39
75086;BME280;63663;0.000;0.000;2022-09-19T21:35:17;101135.00;;;17.63;53.27
75086;BME280;63663;0.000;0.000;2022-09-19T21:37:42;101129.50;;;17.63;53.23
75086;BME280;63663;0.000;0.000;2022-09-19T21:40:08;101125.88;;;17.62;53.42
75086;BME280;63663;0.000;0.000;2022-09-19T21:42:33;101116.81;;;17.62;53.09
75086;BME280;63663;0.000;0.000;2022-09-19T21:44:58;101120.38;;;17.62;53.18
75086;BME280;63663;0.000;0.000;2022-09-19T21:47:23;101131.69;;;17.61;53.16
75086;BME280;63663;0.000;0.000;2022-09-19T21:49:48;101128.13;;;17.60;53.24
75086;BME280;63663;0.000;0.000;2022-09-19T21:52:13;101128.13;;;17.60;53.00
75086;BME280;63663;0.000;0.000;2022-09-19T21:54:39;101130.06;;;17.60;53.01
75086;BME280;63663;0.000;0.000;2022-09-19T21:57:04;101127.59;;;17.58;52.84
75086;BME280;63663;0.000;0.000;2022-09-19T21:59:29;101125.97;;;17.57;53.12
75086;BME280;63663;0.000;0.000;2022-09-19T22:01:54;101129.84;;;17.56;52.99
75086;BME280;63663;0.000;0.000;2022-09-19T22:04:19;101130.66;;;17.57;52.98
75086;BME280;63663;0.000;0.000;2022-09-19T22:06:44;101133.41;;;17.57;52.95
75086;BME280;63663;0.000;0.000;2022-09-19T22:09:09;101130.66;;;17.57;52.91
75086;BME280;63663;0.000;0.000;2022-09-19T22:11:35;101128.22;;;17.55;52.90
75086;BME280;63663;0.000;0.000;2022-09-19T22:14:00;101130.97;;;17.55;52.81
75086;BME280;63663;0.000;0.000;2022-09-19T22:16:26;101125.75;;;17.54;52.87
75086;BME280;63663;0.000;0.000;2022-09-19T22:18:52;101126.56;;;17.54;52.90
75086;BME280;63663;0.000;0.000;2022-09-19T22:21:18;101129.31;;;17.54;52.75
75086;BME280;63663;0.000;0.000;2022-09-19T22:23:43;101129.31;;;17.54;52.82
75086;BME280;63663;0.000;0.000;2022-09-19T22:26:09;101137.59;;;17.54;52.81
75086;BME280;63663;0.000;0.000;2022-09-19T22:28:35;101130.47;;;17.53;52.79
75086;BME280;63663;0.000;0.000;2022-09-19T22:31:02;101130.78;;;17.52;52.83
75086;BME280;63663;0.000;0.000;2022-09-19T22:33:28;101136.28;;;17.52;52.92
75086;BME280;63663;0.000;0.000;2022-09-19T22:35:54;101131.91;;;17.51;52.71
75086;BME280;63663;0.000;0.000;2022-09-19T22:38:23;101131.91;;;17.51;52.86
75086;BME280;63663;0.000;0.000;2022-09-19T22:40:49;101135.78;;;17.50;53.04
75086;BME280;63663;0.000;0.000;2022-09-19T22:43:14;101128.31;;;17.50;53.06
75086;BME280;63663;0.000;0.000;2022-09-19T22:45:39;101132.19;;;17.49;53.05
75086;BME280;63663;0.000;0.000;2022-09-19T22:48:04;101127.81;;;17.48;52.96
75086;BME280;63663;0.000;0.000;2022-09-19T22:50:29;101125.88;;;17.49;53.22
75086;BME280;63663;0.000;0.000;2022-09-19T22:52:54;101127.81;;;17.48;53.10
75086;BME280;63663;0.000;0.000;2022-09-19T22:55:19;101131.69;;;17.47;53.25
75086;BME280;63663;0.000;0.000;2022-09-19T22:57:45;101131.69;;;17.47;52.93
75086;BME280;63663;0.000;0.000;2022-09-19T23:00:14;101136.38;;;17.47;53.20
75086;BME280;63663;0.000;0.000;2022-09-19T23:02:39;101130.06;;;17.46;53.29
75086;BME280;63663;0.000;0.000;2022-09-19T23:05:04;101137.50;;;17.46;52.79
75086;BME280;63663;0.000;0.000;2022-09-19T23:07:29;101139.44;;;17.45;53.02
75086;BME280;63663;0.000;0.000;2022-09-19T23:09:54;101141.34;;;17.45;53.01
75086;BME280;63663;0.000;0.000;2022-09-19T23:12:19;101143.28;;;17.44;53.07
75086;BME280;63663;0.000;0.000;2022-09-19T23:14:44;101146.03;;;17.44;52.91
75086;BME280;63663;0.000;0.000;2022-09-19T23:17:10;101147.97;;;17.44;52.95
75086;BME280;63663;0.000;0.000;2022-09-19T23:19:35;101145.22;;;17.44;52.70
75086;BME280;63663;0.000;0.000;2022-09-19T23:22:00;101142.81;;;17.42;52.87
75086;BME280;63663;0.000;0.000;2022-09-19T23:24:28;101140.06;;;17.42;52.78
75086;BME280;63663;0.000;0.000;2022-09-19T23:26:54;101131.81;;;17.42;52.61
75086;BME280;63663;0.000;0.000;2022-09-19T23:29:20;101139.25;;;17.42;52.41
75086;BME280;63663;0.000;0.000;2022-09-19T23:31:46;101141.16;;;17.41;52.35
75086;BME280;63663;0.000;0.000;2022-09-19T23:34:11;101143.94;;;17.41;52.56
75086;BME280;63663;0.000;0.000;2022-09-19T23:36:36;101141.47;;;17.40;52.17
75086;BME280;63663;0.000;0.000;2022-09-19T23:39:02;101142.28;;;17.40;52.16
75086;BME280;63663;0.000;0.000;2022-09-19T23:41:27;101140.66;;;17.39;52.23
75086;BME280;63663;0.000;0.000;2022-09-19T23:43:53;101145.34;;;17.38;52.33
75086;BME280;63663;0.000;0.000;2022-09-19T23:46:19;101139.84;;;17.38;52.44
75086;BME280;63663;0.000;0.000;2022-09-19T23:48:44;101141.78;;;17.38;52.42
75086;BME280;63663;0.000;0.000;2022-09-19T23:51:09;101143.72;;;17.37;52.51
75086;BME280;63663;0.000;0.000;2022-09-19T23:53:36;101145.63;;;17.37;52.67
75086;BME280;63663;0.000;0.000;2022-09-19T23:56:01;101142.06;;;17.36;52.67
75086;BME280;63663;0.000;0.000;2022-09-19T23:58:26;101141.25;;;17.36;52.70
